sensor_id;sensor_type;location;lat;lon;timestamp;temperature;humidity
70076;DHT22;63241;51.056;3.698;2023-08-06T00:01:23;15.00;99.90
70076;DHT22;63241;51.056;3.698;2023-08-06T00:04:40;15.00;99.90
70076;DHT22;63241;51.056;3.698;2023-08-06T00:07:27;15.00;99.90
70076;DHT22;63241;51.056;3.698;2023-08-06T00:10:13;15.10;99.90
70076;DHT22;63241;51.056;3.698;2023-08-06T00:12:59;15.10;99.90
70076;DHT22;63241;51.056;3.698;2023-08-06T00:16:12;15.20;99.90
70076;DHT22;63241;51.056;3.698;2023-08-06T00:19:19;15.40;99.90
70076;DHT22;63241;51.056;3.698;2023-08-06T00:22:05;15.40;99.90
70076;DHT22;63241;51.056;3.698;2023-08-06T00:24:51;15.40;99.90
70076;DHT22;63241;51.056;3.698;2023-08-06T00:31:45;15.50;99.90
70076;DHT22;63241;51.056;3.698;2023-08-06T00:34:33;15.70;99.90
70076;DHT22;63241;51.056;3.698;2023-08-06T00:37:19;15.70;99.90
70076;DHT22;63241;51.056;3.698;2023-08-06T00:40:06;15.60;99.90
70076;DHT22;63241;51.056;3.698;2023-08-06T00:46:34;15.70;99.90
70076;DHT22;63241;51.056;3.698;2023-08-06T00:49:20;15.70;99.90
70076;DHT22;63241;51.056;3.698;2023-08-06T00:52:07;15.80;99.90
70076;DHT22;63241;51.056;3.698;2023-08-06T00:58:57;15.70;99.90
70076;DHT22;63241;51.056;3.698;2023-08-06T01:01:44;15.70;99.90
70076;DHT22;63241;51.056;3.698;2023-08-06T01:04:31;15.80;99.90
70076;DHT22;63241;51.056;3.698;2023-08-06T01:13:54;16.00;99.90
70076;DHT22;63241;51.056;3.698;2023-08-06T01:16:38;16.00;99.90
70076;DHT22;63241;51.056;3.698;2023-08-06T01:19:24;16.00;99.90
70076;DHT22;63241;51.056;3.698;2023-08-06T01:29:31;15.80;99.90
70076;DHT22;63241;51.056;3.698;2023-08-06T01:32:17;15.90;99.90
70076;DHT22;63241;51.056;3.698;2023-08-06T01:35:04;16.00;99.90
70076;DHT22;63241;51.056;3.698;2023-08-06T01:41:26;15.90;99.90
70076;DHT22;63241;51.056;3.698;2023-08-06T01:44:12;15.90;99.90
70076;DHT22;63241;51.056;3.698;2023-08-06T01:46:58;16.00;99.90
70076;DHT22;63241;51.056;3.698;2023-08-06T01:53:55;16.00;99.90
70076;DHT22;63241;51.056;3.698;2023-08-06T01:56:41;16.00;99.90
70076;DHT22;63241;51.056;3.698;2023-08-06T01:59:28;15.90;99.90
70076;DHT22;63241;51.056;3.698;2023-08-06T02:02:14;15.80;99.90
70076;DHT22;63241;51.056;3.698;2023-08-06T02:05:21;15.70;99.90
70076;DHT22;63241;51.056;3.698;2023-08-06T02:08:38;15.70;99.90
70076;DHT22;63241;51.056;3.698;2023-08-06T02:11:25;15.70;99.90
70076;DHT22;63241;51.056;3.698;2023-08-06T02:51:27;15.20;99.90
70076;DHT22;63241;51.056;3.698;2023-08-06T02:54:14;15.10;99.90
70076;DHT22;63241;51.056;3.698;2023-08-06T03:12:24;14.80;99.90
70076;DHT22;63241;51.056;3.698;2023-08-06T03:15:11;14.80;99.90
70076;DHT22;63241;51.056;3.698;2023-08-06T03:17:57;14.70;99.90
70076;DHT22;63241;51.056;3.698;2023-08-06T03:20:45;14.70;99.90
70076;DHT22;63241;51.056;3.698;2023-08-06T03:30:26;14.90;99.90
70076;DHT22;63241;51.056;3.698;2023-08-06T03:33:12;15.00;99.90
70076;DHT22;63241;51.056;3.698;2023-08-06T03:36:30;14.90;99.90
70076;DHT22;63241;51.056;3.698;2023-08-06T03:42:50;14.90;99.90
70076;DHT22;63241;51.056;3.698;2023-08-06T03:45:37;14.90;99.90
70076;DHT22;63241;51.056;3.698;2023-08-06T03:48:24;14.90;99.90
70076;DHT22;63241;51.056;3.698;2023-08-06T03:55:14;14.90;99.90
70076;DHT22;63241;51.056;3.698;2023-08-06T03:58:00;14.80;99.90
70076;DHT22;63241;51.056;3.698;2023-08-06T05:59:38;15.90;99.90
70076;DHT22;63241;51.056;3.698;2023-08-06T06:02:24;15.80;99.90
70076;DHT22;63241;51.056;3.698;2023-08-06T06:05:10;15.60;99.90
70076;DHT22;63241;51.056;3.698;2023-08-06T07:09:21;16.50;99.90
70076;DHT22;63241;51.056;3.698;2023-08-06T07:12:08;16.50;99.90
70076;DHT22;63241;51.056;3.698;2023-08-06T08:47:41;17.20;99.90
70076;DHT22;63241;51.056;3.698;2023-08-06T08:50:28;16.80;99.90
70076;DHT22;63241;51.056;3.698;2023-08-06T08:53:15;16.80;99.90
70076;DHT22;63241;51.056;3.698;2023-08-06T09:00:09;16.80;99.90
70076;DHT22;63241;51.056;3.698;2023-08-06T09:02:56;16.70;99.90
70076;DHT22;63241;51.056;3.698;2023-08-06T09:05:49;16.70;99.90
70076;DHT22;63241;51.056;3.698;2023-08-06T09:08:36;17.00;99.90
70076;DHT22;63241;51.056;3.698;2023-08-06T09:11:47;17.10;99.90
70076;DHT22;63241;51.056;3.698;2023-08-06T09:14:34;17.40;99.90
70076;DHT22;63241;51.056;3.698;2023-08-06T09:17:21;17.50;99.90
70076;DHT22;63241;51.056;3.698;2023-08-06T09:20:14;17.50;99.90
70076;DHT22;63241;51.056;3.698;2023-08-06T09:26:50;17.70;99.90
70076;DHT22;63241;51.056;3.698;2023-08-06T09:29:40;17.30;99.90
70076;DHT22;63241;51.056;3.698;2023-08-06T09:32:25;17.00;99.90
70076;DHT22;63241;51.056;3.698;2023-08-06T09:35:16;17.00;99.90
70076;DHT22;63241;51.056;3.698;2023-08-06T09:57:27;16.70;99.90
70076;DHT22;63241;51.056;3.698;2023-08-06T10:00:14;16.30;99.90
70076;DHT22;63241;51.056;3.698;2023-08-06T10:03:00;16.30;99.90
70076;DHT22;63241;51.056;3.698;2023-08-06T10:06:20;16.70;99.90
70076;DHT22;63241;51.056;3.698;2023-08-06T10:09:17;17.40;99.90
70076;DHT22;63241;51.056;3.698;2023-08-06T10:12:04;18.10;99.90
70076;DHT22;63241;51.056;3.698;2023-08-06T10:14:53;18.70;99.90
70076;DHT22;63241;51.056;3.698;2023-08-06T10:22:23;19.20;99.90
70076;DHT22;63241;51.056;3.698;2023-08-06T10:24:45;19.10;99.90
70076;DHT22;63241;51.056;3.698;2023-08-06T10:27:22;18.70;99.90
70076;DHT22;63241;51.056;3.698;2023-08-06T10:30:31;18.60;99.90
70076;DHT22;63241;51.056;3.698;2023-08-06T10:36:54;18.70;99.90
70076;DHT22;63241;51.056;3.698;2023-08-06T10:39:47;19.40;99.90
70076;DHT22;63241;51.056;3.698;2023-08-06T10:42:29;19.70;99.90
70076;DHT22;63241;51.056;3.698;2023-08-06T10:49:23;19.70;99.90
70076;DHT22;63241;51.056;3.698;2023-08-06T10:52:09;19.40;99.90
70076;DHT22;63241;51.056;3.698;2023-08-06T10:54:56;18.90;99.90
70076;DHT22;63241;51.056;3.698;2023-08-06T10:57:42;18.80;99.90
70076;DHT22;63241;51.056;3.698;2023-08-06T11:03:55;18.30;99.90
70076;DHT22;63241;51.056;3.698;2023-08-06T11:06:43;17.90;99.90
70076;DHT22;63241;51.056;3.698;2023-08-06T11:09:29;17.70;99.90
70076;DHT22;63241;51.056;3.698;2023-08-06T11:12:35;17.20;99.90
70076;DHT22;63241;51.056;3.698;2023-08-06T11:15:49;17.10;99.90
70076;DHT22;63241;51.056;3.698;2023-08-06T11:18:35;17.00;99.90
70076;DHT22;63241;51.056;3.698;2023-08-06T11:21:22;17.00;99.90
70076;DHT22;63241;51.056;3.698;2023-08-06T11:24:11;17.20;99.90
70076;DHT22;63241;51.056;3.698;2023-08-06T11:30:39;17.80;99.90
70076;DHT22;63241;51.056;3.698;2023-08-06T11:33:25;18.20;99.90
70076;DHT22;63241;51.056;3.698;2023-08-06T11:36:12;18.60;99.90
70076;DHT22;63241;51.056;3.698;2023-08-06T16:54:50;19.50;91.20
70076;DHT22;63241;51.056;3.698;2023-08-06T16:57:36;19.60;91.60
70076;DHT22;63241;51.056;3.698;2023-08-06T17:00:44;19.70;92.00
70076;DHT22;63241;51.056;3.698;2023-08-06T17:04:21;19.90;90.50
70076;DHT22;63241;51.056;3.698;2023-08-06T17:07:09;20.10;90.80
70076;DHT22;63241;51.056;3.698;2023-08-06T17:09:55;20.00;91.00
70076;DHT22;63241;51.056;3.698;2023-08-06T17:12:41;19.80;90.60
70076;DHT22;63241;51.056;3.698;2023-08-06T17:15:58;19.40;90.90
70076;DHT22;63241;51.056;3.698;2023-08-06T17:18:58;19.30;91.20
70076;DHT22;63241;51.056;3.698;2023-08-06T17:21:44;19.00;92.00
70076;DHT22;63241;51.056;3.698;2023-08-06T17:24:32;18.90;91.90
70076;DHT22;63241;51.056;3.698;2023-08-06T17:31:25;18.70;92.30
70076;DHT22;63241;51.056;3.698;2023-08-06T17:34:11;18.60;92.10
70076;DHT22;63241;51.056;3.698;2023-08-06T17:37:00;18.60;93.40
70076;DHT22;63241;51.056;3.698;2023-08-06T17:39:48;18.90;93.20
70076;DHT22;63241;51.056;3.698;2023-08-06T17:46:33;18.80;92.60
70076;DHT22;63241;51.056;3.698;2023-08-06T17:49:19;18.40;92.70
70076;DHT22;63241;51.056;3.698;2023-08-06T17:52:06;18.30;92.60
70076;DHT22;63241;51.056;3.698;2023-08-06T18:01:51;18.70;92.40
70076;DHT22;63241;51.056;3.698;2023-08-06T18:04:37;18.40;92.60
70076;DHT22;63241;51.056;3.698;2023-08-06T18:07:24;18.00;92.90
70076;DHT22;63241;51.056;3.698;2023-08-06T18:10:47;17.80;94.20
70076;DHT22;63241;51.056;3.698;2023-08-06T18:13:57;17.70;94.10
70076;DHT22;63241;51.056;3.698;2023-08-06T19:20:55;15.50;99.90
70076;DHT22;63241;51.056;3.698;2023-08-06T19:23:46;15.30;99.90
70076;DHT22;63241;51.056;3.698;2023-08-06T19:26:32;15.10;99.90
70076;DHT22;63241;51.056;3.698;2023-08-06T19:29:18;15.00;99.90
70076;DHT22;63241;51.056;3.698;2023-08-06T19:35:51;14.80;99.90
70076;DHT22;63241;51.056;3.698;2023-08-06T19:38:37;14.70;99.90
70076;DHT22;63241;51.056;3.698;2023-08-06T19:41:27;14.50;99.90
